Regatta — V7DM3 — position and weather

sailwx.info

Track history (hours):
 
Tides and Currents Weather Stations Pressure Air Temp Water Temp Dewpoint Dewpoint Depression Visibility Wind Speed Wind Dir Waves Ship Positions

Regatta

Last reported at 2017-Jul-22 18:03 UTC. Time now 2017-Jul-22 18:33 UTC.
Position N 50°17' W 125°24'.

Length 180 m; draft 5.7 m.

Type: Passenger vessel. MMSI: 538001664.

Date/timePositionNaut miles runAvg speedWind from/ knotsBaromVisibWave heightAir tempDewpointWater temp
2017-Jul-22 18:03N 50°17' W 125°24'219.8
2017-Jul-22 17:57N 50°15' W 125°23'716.0
2017-Jul-22 17:30N 50°08' W 125°21'714.1
2017-Jul-22 17:01N 50°03' W 125°14'714.6
2017-Jul-22 16:30N 49°57' W 125°08'713.6
2017-Jul-22 16:00N 49°52' W 125°00'713.6
2017-Jul-22 15:31N 49°47' W 124°53'713.8
2017-Jul-22 15:00N 49°42' W 124°45'1313.5
2017-Jul-22 14:00N 49°32' W 124°31'713.7
2017-Jul-22 13:30N 49°27' W 124°24'713.8
2017-Jul-22 12:58N 49°24' W 124°13'1713.9
2017-Jul-22 11:45N 49°18' W 123°49'413.4
2017-Jul-22 11:28N 49°16' W 123°44'613.4
2017-Jul-22 11:00N 49°13' W 123°36'714.0
2017-Jul-22 10:30N 49°09' W 123°28'1014.9
2017-Jul-22 09:51N 49°02' W 123°17'615.2
2017-Jul-22 09:27N 48°57' W 123°10'614.6
2017-Jul-22 09:00N 48°53' W 123°03'712.8
2017-Jul-22 08:28N 48°46' W 123°02'714.6
2017-Jul-22 08:00N 48°43' W 123°11'611.7
2017-Jul-22 07:30N 48°37' W 123°14'714.3
2017-Jul-22 07:00N 48°31' W 123°11'713.6
2017-Jul-22 06:31N 48°24' W 123°13'714.3
2017-Jul-22 06:00N 48°21' W 123°23'713.6
2017-Jul-22 05:29N 48°15' W 123°27'612.9
2017-Jul-22 05:00N 48°09' W 123°22'812.4
2017-Jul-22 04:23N 48°11' W 123°11'613.7
2017-Jul-22 03:59N 48°13' W 123°03'714.8
2017-Jul-22 03:30N 48°12' W 122°53'1814.2
2017-Jul-22 02:14N 47°58' W 122°35'417.5
2017-Jul-22 02:01N 47°56' W 122°30'816.6
2017-Jul-22 01:30N 47°48' W 122°26'816.9
2017-Jul-22 01:01N 47°40' W 122°28'510.6
2017-Jul-22 00:30N 47°37' W 122°21'0 0.1
2017-Jul-22 00:00N 47°37' W 122°21'0 0.0
2017-Jul-21 23:30N 47°37' W 122°21'0 0.0
2017-Jul-21 22:59N 47°37' W 122°21'0 0.0
2017-Jul-21 22:30N 47°37' W 122°21'0 0.0
2017-Jul-21 22:00N 47°37' W 122°21'0 0.0
2017-Jul-21 21:30N 47°37' W 122°21'0 0.0
2017-Jul-21 21:00N 47°37' W 122°21'0 0.0
2017-Jul-21 20:28N 47°37' W 122°21'0 0.0
2017-Jul-21 20:00N 47°37' W 122°21'0 0.0
2017-Jul-21 19:27N 47°37' W 122°21'0 0.0
2017-Jul-21 19:00N 47°37' W 122°21'0 0.0
2017-Jul-21 18:30N 47°37' W 122°21'0 0.0
2017-Jul-21 18:00N 47°37' W 122°21'0 0.0
2017-Jul-21 17:27N 47°37' W 122°21'0 0.0
2017-Jul-21 17:00N 47°37' W 122°21'0 0.0
2017-Jul-21 16:29N 47°37' W 122°21'0 0.0
2017-Jul-21 16:00N 47°37' W 122°21'0 0.0
2017-Jul-21 15:29N 47°37' W 122°21'0 0.0
2017-Jul-21 14:59N 47°37' W 122°21'0 0.0
2017-Jul-21 14:30N 47°37' W 122°21'0 0.0
2017-Jul-21 14:00N 47°37' W 122°21'0 0.0
2017-Jul-21 13:30N 47°37' W 122°21'1 2.2
2017-Jul-21 13:00N 47°36' W 122°23'510.5
2017-Jul-21 12:30N 47°40' W 122°28'815.5
2017-Jul-21 12:00N 47°48' W 122°27'815.9
2017-Jul-21 11:30N 47°55' W 122°30'815.1
2017-Jul-21 10:58N 48°01' W 122°38'715.1
2017-Jul-21 10:28N 48°08' W 122°43'715.2
2017-Jul-21 09:59N 48°11' W 122°53'815.7
2017-Jul-21 09:30N 48°12' W 123°04'815.6
2017-Jul-21 09:00N 48°11' W 123°16'712.6
2017-Jul-21 08:27N 48°11' W 123°26'714.6
2017-Jul-21 07:57N 48°13' W 123°37'815.0
2017-Jul-21 07:27N 48°13' W 123°48'715.2
2017-Jul-21 07:00N 48°14' W 123°58'816.1
2017-Jul-21 06:30N 48°18' W 124°09'816.3
2017-Jul-21 06:00N 48°22' W 124°20'816.2
2017-Jul-21 05:30N 48°25' W 124°31'815.8
2017-Jul-21 05:00N 48°28' W 124°42'816.0
2017-Jul-21 04:30N 48°29' W 124°54'816.7
2017-Jul-21 04:01N 48°29' W 125°06'816.5
2017-Jul-21 03:30N 48°32' W 125°18'816.3
2017-Jul-21 03:00N 48°36' W 125°29'816.6
2017-Jul-21 02:31N 48°40' W 125°40'816.8
2017-Jul-21 02:01N 48°44' W 125°51'816.8
2017-Jul-21 01:30N 48°48' W 126°02'816.9
2017-Jul-21 01:01N 48°53' W 126°12'916.7
2017-Jul-21 00:30N 48°58' W 126°22'816.9
2017-Jul-21 00:01N 49°04' W 126°32'817.0
2017-Jul-20 23:31N 49°09' W 126°42'917.3
2017-Jul-20 23:00N 49°14' W 126°53'  
2017-Jul-16 03:02N 51°19' W 129°17'017.9
2017-Jul-16 03:01N 51°19' W 129°16'1017.8
2017-Jul-16 02:28N 51°14' W 129°02'817.8
2017-Jul-16 02:01N 51°12' W 128°50'918.0
2017-Jul-16 01:31N 51°09' W 128°37'917.8
2017-Jul-16 01:01N 51°06' W 128°23'1417.9
2017-Jul-16 00:14N 51°02' W 128°02'418.5
2017-Jul-16 00:00N 51°01' W 127°56'714.6
2017-Jul-15 23:30N 50°58' W 127°45'917.1
2017-Jul-15 23:00N 50°53' W 127°35'917.2
2017-Jul-15 22:30N 50°49' W 127°22'1317.4
2017-Jul-15 21:45N 50°44' W 127°03'6516.8
2017-Jul-15 17:52N 50°20' W 125°27'615.7
2017-Jul-15 17:30N 50°15' W 125°23'815.7
2017-Jul-15 17:00N 50°08' W 125°21'612.8
2017-Jul-15 16:31N 50°03' W 125°14'712.5
2017-Jul-15 15:59N 49°57' W 125°09'612.0
2017-Jul-15 15:31N 49°53' W 125°02'612.4
2017-Jul-15 15:01N 49°49' W 124°55'1313.1
2017-Jul-15 14:00N 49°40' W 124°41'713.6
2017-Jul-15 13:30N 49°35' W 124°33'1313.4
2017-Jul-15 12:33N 49°26' W 124°19'213.7
2017-Jul-15 12:23N 49°25' W 124°16'1216.7
2017-Jul-15 11:41N 49°21' W 123°59'717.4
2017-Jul-15 11:17N 49°18' W 123°50'517.6
2017-Jul-15 10:59N 49°16' W 123°42'817.5
2017-Jul-15 10:30N 49°11' W 123°31'917.5
2017-Jul-15 10:00N 49°05' W 123°22'917.0
2017-Jul-15 09:30N 48°59' W 123°13'916.9
2017-Jul-15 09:00N 48°53' W 123°03'714.0
2017-Jul-15 08:30N 48°46' W 123°02'815.7
2017-Jul-15 08:00N 48°42' W 123°12'713.3
2017-Jul-15 07:30N 48°36' W 123°13'816.9
2017-Jul-15 07:00N 48°28' W 123°10'714.6
2017-Jul-15 06:30N 48°22' W 123°17'612.0
2017-Jul-15 06:00N 48°19' W 123°25'611.7
2017-Jul-15 05:28N 48°13' W 123°26'510.4
2017-Jul-15 04:59N 48°09' W 123°21'713.7
2017-Jul-15 04:31N 48°12' W 123°11'713.2
2017-Jul-15 04:00N 48°12' W 123°01'713.2
2017-Jul-15 03:29N 48°12' W 122°51'1612.4
2017-Jul-15 02:13N 47°60' W 122°36'313.5
2017-Jul-15 02:00N 47°58' W 122°33'713.9
2017-Jul-15 01:30N 47°52' W 122°28'815.6
2017-Jul-15 01:01N 47°44' W 122°26'713.7
2017-Jul-15 00:30N 47°37' W 122°25'3 5.5
2017-Jul-15 00:00N 47°37' W 122°21'0 0.0
2017-Jul-14 23:30N 47°37' W 122°21'0 0.0
2017-Jul-14 23:00N 47°37' W 122°21'0 0.0
2017-Jul-14 22:29N 47°37' W 122°21'0 0.0
2017-Jul-14 22:00N 47°37' W 122°21'0 0.0
2017-Jul-14 21:30N 47°37' W 122°21'0 0.0
2017-Jul-14 20:59N 47°37' W 122°21'0 0.0
2017-Jul-14 20:30N 47°37' W 122°21'0 0.0
2017-Jul-14 20:00N 47°37' W 122°21'0 0.0
2017-Jul-14 19:30N 47°37' W 122°21'0 0.0
2017-Jul-14 19:00N 47°37' W 122°21'0 0.0
2017-Jul-14 18:30N 47°37' W 122°21'0 0.0
2017-Jul-14 17:59N 47°37' W 122°21'0 0.0
2017-Jul-14 17:31N 47°37' W 122°21'0 0.0
2017-Jul-14 17:00N 47°37' W 122°21'0 0.0
2017-Jul-14 16:29N 47°37' W 122°21'0 0.0
2017-Jul-14 16:00N 47°37' W 122°21'0 0.0
2017-Jul-14 15:29N 47°37' W 122°21'0 0.0
2017-Jul-14 15:00N 47°37' W 122°21'0 0.0
2017-Jul-14 14:30N 47°37' W 122°21'0 0.0
2017-Jul-14 13:59N 47°37' W 122°21'0 0.0
2017-Jul-14 13:29N 47°37' W 122°21'1 1.8
2017-Jul-14 13:00N 47°36' W 122°22'510.4
2017-Jul-14 12:30N 47°39' W 122°28'816.5
2017-Jul-14 12:00N 47°48' W 122°27'918.0
2017-Jul-14 11:30N 47°56' W 122°32'1217.0
2017-Jul-14 10:50N 48°06' W 122°40'718.1
2017-Jul-14 10:25N 48°11' W 122°49'818.4
2017-Jul-14 10:00N 48°12' W 123°01'917.5
2017-Jul-14 09:30N 48°11' W 123°14'714.1
2017-Jul-14 09:00N 48°10' W 123°24'613.0
2017-Jul-14 08:31N 48°13' W 123°32'815.3
2017-Jul-14 07:59N 48°13' W 123°44'715.3
2017-Jul-14 07:30N 48°13' W 123°55'815.6
2017-Jul-14 07:00N 48°17' W 124°06'816.3
2017-Jul-14 06:30N 48°20' W 124°17'816.1
2017-Jul-14 06:01N 48°24' W 124°28'815.3
2017-Jul-14 05:30N 48°27' W 124°38'814.8
2017-Jul-14 05:00N 48°29' W 124°49'815.7
2017-Jul-14 04:30N 48°29' W 125°01'816.6
2017-Jul-14 04:00N 48°30' W 125°13'816.9
2017-Jul-14 03:30N 48°34' W 125°25'917.6
2017-Jul-14 03:01N 48°38' W 125°36'917.5
2017-Jul-14 02:30N 48°42' W 125°48'917.4
2017-Jul-14 02:00N 48°47' W 125°60'917.2
2017-Jul-14 01:28N 48°52' W 126°11'817.0
2017-Jul-14 00:58N 48°57' W 126°21'917.2
2017-Jul-14 00:27N 49°03' W 126°31'716.6
2017-Jul-14 00:00N 49°08' W 126°40'917.0
2017-Jul-13 23:30N 49°13' W 126°50'916.8
2017-Jul-13 23:00N 49°19' W 127°00'  
Track history (hours):
 
Tides and Currents Weather Stations Pressure Air Temp Water Temp Dewpoint Dewpoint Depression Visibility Wind Speed Wind Dir Waves Ship Positions

Regatta

Last reported at 2017-Jul-22 18:03 UTC. Time now 2017-Jul-22 18:33 UTC.
Position N 50°17' W 125°24'.

Length 180 m; draft 5.7 m.

Type: Passenger vessel. MMSI: 538001664.

Date/timePositionNaut miles runAvg speedWind from/ knotsBaromVisibWave heightAir tempDewpointWater temp
2017-Jul-22 18:03N 50°17' W 125°24'219.8
2017-Jul-22 17:57N 50°15' W 125°23'716.0
2017-Jul-22 17:30N 50°08' W 125°21'714.1
2017-Jul-22 17:01N 50°03' W 125°14'714.6
2017-Jul-22 16:30N 49°57' W 125°08'713.6
2017-Jul-22 16:00N 49°52' W 125°00'713.6
2017-Jul-22 15:31N 49°47' W 124°53'713.8
2017-Jul-22 15:00N 49°42' W 124°45'1313.5
2017-Jul-22 14:00N 49°32' W 124°31'713.7
2017-Jul-22 13:30N 49°27' W 124°24'713.8
2017-Jul-22 12:58N 49°24' W 124°13'1713.9
2017-Jul-22 11:45N 49°18' W 123°49'413.4
2017-Jul-22 11:28N 49°16' W 123°44'613.4
2017-Jul-22 11:00N 49°13' W 123°36'714.0
2017-Jul-22 10:30N 49°09' W 123°28'1014.9
2017-Jul-22 09:51N 49°02' W 123°17'615.2
2017-Jul-22 09:27N 48°57' W 123°10'614.6
2017-Jul-22 09:00N 48°53' W 123°03'712.8
2017-Jul-22 08:28N 48°46' W 123°02'714.6
2017-Jul-22 08:00N 48°43' W 123°11'611.7
2017-Jul-22 07:30N 48°37' W 123°14'714.3
2017-Jul-22 07:00N 48°31' W 123°11'713.6
2017-Jul-22 06:31N 48°24' W 123°13'714.3
2017-Jul-22 06:00N 48°21' W 123°23'713.6
2017-Jul-22 05:29N 48°15' W 123°27'612.9
2017-Jul-22 05:00N 48°09' W 123°22'812.4
2017-Jul-22 04:23N 48°11' W 123°11'613.7
2017-Jul-22 03:59N 48°13' W 123°03'714.8
2017-Jul-22 03:30N 48°12' W 122°53'1814.2
2017-Jul-22 02:14N 47°58' W 122°35'417.5
2017-Jul-22 02:01N 47°56' W 122°30'816.6
2017-Jul-22 01:30N 47°48' W 122°26'816.9
2017-Jul-22 01:01N 47°40' W 122°28'510.6
2017-Jul-22 00:30N 47°37' W 122°21'0 0.1
2017-Jul-22 00:00N 47°37' W 122°21'0 0.0
2017-Jul-21 23:30N 47°37' W 122°21'0 0.0
2017-Jul-21 22:59N 47°37' W 122°21'0 0.0
2017-Jul-21 22:30N 47°37' W 122°21'0 0.0
2017-Jul-21 22:00N 47°37' W 122°21'0 0.0
2017-Jul-21 21:30N 47°37' W 122°21'0 0.0
2017-Jul-21 21:00N 47°37' W 122°21'0 0.0
2017-Jul-21 20:28N 47°37' W 122°21'0 0.0
2017-Jul-21 20:00N 47°37' W 122°21'0 0.0
2017-Jul-21 19:27N 47°37' W 122°21'0 0.0
2017-Jul-21 19:00N 47°37' W 122°21'0 0.0
2017-Jul-21 18:30N 47°37' W 122°21'0 0.0
2017-Jul-21 18:00N 47°37' W 122°21'0 0.0
2017-Jul-21 17:27N 47°37' W 122°21'0 0.0
2017-Jul-21 17:00N 47°37' W 122°21'0 0.0
2017-Jul-21 16:29N 47°37' W 122°21'0 0.0
2017-Jul-21 16:00N 47°37' W 122°21'0 0.0
2017-Jul-21 15:29N 47°37' W 122°21'0 0.0
2017-Jul-21 14:59N 47°37' W 122°21'0 0.0
2017-Jul-21 14:30N 47°37' W 122°21'0 0.0
2017-Jul-21 14:00N 47°37' W 122°21'0 0.0
2017-Jul-21 13:30N 47°37' W 122°21'1 2.2
2017-Jul-21 13:00N 47°36' W 122°23'510.5
2017-Jul-21 12:30N 47°40' W 122°28'815.5
2017-Jul-21 12:00N 47°48' W 122°27'815.9
2017-Jul-21 11:30N 47°55' W 122°30'815.1
2017-Jul-21 10:58N 48°01' W 122°38'715.1
2017-Jul-21 10:28N 48°08' W 122°43'715.2
2017-Jul-21 09:59N 48°11' W 122°53'815.7
2017-Jul-21 09:30N 48°12' W 123°04'815.6
2017-Jul-21 09:00N 48°11' W 123°16'712.6
2017-Jul-21 08:27N 48°11' W 123°26'714.6
2017-Jul-21 07:57N 48°13' W 123°37'815.0
2017-Jul-21 07:27N 48°13' W 123°48'715.2
2017-Jul-21 07:00N 48°14' W 123°58'816.1
2017-Jul-21 06:30N 48°18' W 124°09'816.3
2017-Jul-21 06:00N 48°22' W 124°20'816.2
2017-Jul-21 05:30N 48°25' W 124°31'815.8
2017-Jul-21 05:00N 48°28' W 124°42'816.0
2017-Jul-21 04:30N 48°29' W 124°54'816.7
2017-Jul-21 04:01N 48°29' W 125°06'816.5
2017-Jul-21 03:30N 48°32' W 125°18'816.3
2017-Jul-21 03:00N 48°36' W 125°29'816.6
2017-Jul-21 02:31N 48°40' W 125°40'816.8
2017-Jul-21 02:01N 48°44' W 125°51'816.8
2017-Jul-21 01:30N 48°48' W 126°02'816.9
2017-Jul-21 01:01N 48°53' W 126°12'916.7
2017-Jul-21 00:30N 48°58' W 126°22'816.9
2017-Jul-21 00:01N 49°04' W 126°32'817.0
2017-Jul-20 23:31N 49°09' W 126°42'917.3
2017-Jul-20 23:00N 49°14' W 126°53'  
2017-Jul-16 03:02N 51°19' W 129°17'017.9
2017-Jul-16 03:01N 51°19' W 129°16'1017.8
2017-Jul-16 02:28N 51°14' W 129°02'817.8
2017-Jul-16 02:01N 51°12' W 128°50'918.0
2017-Jul-16 01:31N 51°09' W 128°37'917.8
2017-Jul-16 01:01N 51°06' W 128°23'1417.9
2017-Jul-16 00:14N 51°02' W 128°02'418.5
2017-Jul-16 00:00N 51°01' W 127°56'714.6
2017-Jul-15 23:30N 50°58' W 127°45'917.1
2017-Jul-15 23:00N 50°53' W 127°35'917.2
2017-Jul-15 22:30N 50°49' W 127°22'1317.4
2017-Jul-15 21:45N 50°44' W 127°03'6516.8
2017-Jul-15 17:52N 50°20' W 125°27'615.7
2017-Jul-15 17:30N 50°15' W 125°23'815.7
2017-Jul-15 17:00N 50°08' W 125°21'612.8
2017-Jul-15 16:31N 50°03' W 125°14'712.5
2017-Jul-15 15:59N 49°57' W 125°09'612.0
2017-Jul-15 15:31N 49°53' W 125°02'612.4
2017-Jul-15 15:01N 49°49' W 124°55'1313.1
2017-Jul-15 14:00N 49°40' W 124°41'713.6
2017-Jul-15 13:30N 49°35' W 124°33'1313.4
2017-Jul-15 12:33N 49°26' W 124°19'213.7
2017-Jul-15 12:23N 49°25' W 124°16'1216.7
2017-Jul-15 11:41N 49°21' W 123°59'717.4
2017-Jul-15 11:17N 49°18' W 123°50'517.6
2017-Jul-15 10:59N 49°16' W 123°42'817.5
2017-Jul-15 10:30N 49°11' W 123°31'917.5
2017-Jul-15 10:00N 49°05' W 123°22'917.0
2017-Jul-15 09:30N 48°59' W 123°13'916.9
2017-Jul-15 09:00N 48°53' W 123°03'714.0
2017-Jul-15 08:30N 48°46' W 123°02'815.7
2017-Jul-15 08:00N 48°42' W 123°12'713.3
2017-Jul-15 07:30N 48°36' W 123°13'816.9
2017-Jul-15 07:00N 48°28' W 123°10'714.6
2017-Jul-15 06:30N 48°22' W 123°17'612.0
2017-Jul-15 06:00N 48°19' W 123°25'611.7
2017-Jul-15 05:28N 48°13' W 123°26'510.4
2017-Jul-15 04:59N 48°09' W 123°21'713.7
2017-Jul-15 04:31N 48°12' W 123°11'713.2
2017-Jul-15 04:00N 48°12' W 123°01'713.2
2017-Jul-15 03:29N 48°12' W 122°51'1612.4
2017-Jul-15 02:13N 47°60' W 122°36'313.5
2017-Jul-15 02:00N 47°58' W 122°33'713.9
2017-Jul-15 01:30N 47°52' W 122°28'815.6
2017-Jul-15 01:01N 47°44' W 122°26'713.7
2017-Jul-15 00:30N 47°37' W 122°25'3 5.5
2017-Jul-15 00:00N 47°37' W 122°21'0 0.0
2017-Jul-14 23:30N 47°37' W 122°21'0 0.0
2017-Jul-14 23:00N 47°37' W 122°21'0 0.0
2017-Jul-14 22:29N 47°37' W 122°21'0 0.0
2017-Jul-14 22:00N 47°37' W 122°21'0 0.0
2017-Jul-14 21:30N 47°37' W 122°21'0 0.0
2017-Jul-14 20:59N 47°37' W 122°21'0 0.0
2017-Jul-14 20:30N 47°37' W 122°21'0 0.0
2017-Jul-14 20:00N 47°37' W 122°21'0 0.0
2017-Jul-14 19:30N 47°37' W 122°21'0 0.0
2017-Jul-14 19:00N 47°37' W 122°21'0 0.0
2017-Jul-14 18:30N 47°37' W 122°21'0 0.0
2017-Jul-14 17:59N 47°37' W 122°21'0 0.0
2017-Jul-14 17:31N 47°37' W 122°21'0 0.0
2017-Jul-14 17:00N 47°37' W 122°21'0 0.0
2017-Jul-14 16:29N 47°37' W 122°21'0 0.0
2017-Jul-14 16:00N 47°37' W 122°21'0 0.0
2017-Jul-14 15:29N 47°37' W 122°21'0 0.0
2017-Jul-14 15:00N 47°37' W 122°21'0 0.0
2017-Jul-14 14:30N 47°37' W 122°21'0 0.0
2017-Jul-14 13:59N 47°37' W 122°21'0 0.0
2017-Jul-14 13:29N 47°37' W 122°21'1 1.8
2017-Jul-14 13:00N 47°36' W 122°22'510.4
2017-Jul-14 12:30N 47°39' W 122°28'816.5
2017-Jul-14 12:00N 47°48' W 122°27'918.0
2017-Jul-14 11:30N 47°56' W 122°32'1217.0
2017-Jul-14 10:50N 48°06' W 122°40'718.1
2017-Jul-14 10:25N 48°11' W 122°49'818.4
2017-Jul-14 10:00N 48°12' W 123°01'917.5
2017-Jul-14 09:30N 48°11' W 123°14'714.1
2017-Jul-14 09:00N 48°10' W 123°24'613.0
2017-Jul-14 08:31N 48°13' W 123°32'815.3
2017-Jul-14 07:59N 48°13' W 123°44'715.3
2017-Jul-14 07:30N 48°13' W 123°55'815.6
2017-Jul-14 07:00N 48°17' W 124°06'816.3
2017-Jul-14 06:30N 48°20' W 124°17'816.1
2017-Jul-14 06:01N 48°24' W 124°28'815.3
2017-Jul-14 05:30N 48°27' W 124°38'814.8
2017-Jul-14 05:00N 48°29' W 124°49'815.7
2017-Jul-14 04:30N 48°29' W 125°01'816.6
2017-Jul-14 04:00N 48°30' W 125°13'816.9
2017-Jul-14 03:30N 48°34' W 125°25'917.6
2017-Jul-14 03:01N 48°38' W 125°36'917.5
2017-Jul-14 02:30N 48°42' W 125°48'917.4
2017-Jul-14 02:00N 48°47' W 125°60'917.2
2017-Jul-14 01:28N 48°52' W 126°11'817.0
2017-Jul-14 00:58N 48°57' W 126°21'917.2
2017-Jul-14 00:27N 49°03' W 126°31'716.6
2017-Jul-14 00:00N 49°08' W 126°40'917.0
2017-Jul-13 23:30N 49°13' W 126°50'916.8
2017-Jul-13 23:00N 49°19' W 127°00'  

Dump ship's entire track history